sensor_id;sensor_type;location;lat;lon;timestamp;temperature;humidity
70214;DHT22;60138;55.808;37.078;2023-01-26T00:01:34;-1.65;68.07
70214;DHT22;60138;55.808;37.078;2023-01-26T00:03:59;-1.69;67.89
70214;DHT22;60138;55.808;37.078;2023-01-26T00:06:25;-1.70;67.92
70214;DHT22;60138;55.808;37.078;2023-01-26T00:08:53;-1.68;68.12
70214;DHT22;60138;55.808;37.078;2023-01-26T00:11:22;-1.71;67.76
70214;DHT22;60138;55.808;37.078;2023-01-26T00:13:49;-1.72;68.06
70214;DHT22;60138;55.808;37.078;2023-01-26T00:16:18;-1.70;68.09
70214;DHT22;60138;55.808;37.078;2023-01-26T00:18:44;-1.68;68.13
70214;DHT22;60138;55.808;37.078;2023-01-26T00:21:15;-1.62;68.13
70214;DHT22;60138;55.808;37.078;2023-01-26T00:23:42;-1.61;68.06
70214;DHT22;60138;55.808;37.078;2023-01-26T00:26:09;-1.59;67.97
70214;DHT22;60138;55.808;37.078;2023-01-26T00:28:37;-1.60;68.09
70214;DHT22;60138;55.808;37.078;2023-01-26T00:31:06;-1.62;68.09
70214;DHT22;60138;55.808;37.078;2023-01-26T00:33:32;-1.61;68.04
70214;DHT22;60138;55.808;37.078;2023-01-26T00:35:58;-1.63;68.04
70214;DHT22;60138;55.808;37.078;2023-01-26T00:38:25;-1.62;68.13
70214;DHT22;60138;55.808;37.078;2023-01-26T00:40:51;-1.60;67.91
70214;DHT22;60138;55.808;37.078;2023-01-26T00:43:17;-1.62;67.97
70214;DHT22;60138;55.808;37.078;2023-01-26T00:45:42;-1.63;68.04
70214;DHT22;60138;55.808;37.078;2023-01-26T00:48:08;-1.64;68.08
70214;DHT22;60138;55.808;37.078;2023-01-26T00:50:35;-1.61;68.11
70214;DHT22;60138;55.808;37.078;2023-01-26T00:53:01;-1.64;68.09
70214;DHT22;60138;55.808;37.078;2023-01-26T00:55:27;-1.69;67.83
70214;DHT22;60138;55.808;37.078;2023-01-26T00:57:53;-1.71;68.04
70214;DHT22;60138;55.808;37.078;2023-01-26T01:00:18;-1.73;68.03
70214;DHT22;60138;55.808;37.078;2023-01-26T01:02:44;-1.70;68.11
70214;DHT22;60138;55.808;37.078;2023-01-26T01:05:10;-1.69;68.04
70214;DHT22;60138;55.808;37.078;2023-01-26T01:07:36;-1.70;68.02
70214;DHT22;60138;55.808;37.078;2023-01-26T01:10:02;-1.69;68.23
70214;DHT22;60138;55.808;37.078;2023-01-26T01:12:29;-1.72;68.24
70214;DHT22;60138;55.808;37.078;2023-01-26T01:14:55;-1.74;68.28
70214;DHT22;60138;55.808;37.078;2023-01-26T01:17:22;-1.71;68.27
70214;DHT22;60138;55.808;37.078;2023-01-26T01:19:48;-1.67;68.36
70214;DHT22;60138;55.808;37.078;2023-01-26T01:22:20;-1.63;68.21
70214;DHT22;60138;55.808;37.078;2023-01-26T01:24:46;-1.60;68.31
70214;DHT22;60138;55.808;37.078;2023-01-26T01:27:11;-1.62;68.07
70214;DHT22;60138;55.808;37.078;2023-01-26T01:29:37;-1.63;68.17
70214;DHT22;60138;55.808;37.078;2023-01-26T01:32:03;-1.60;68.23
70214;DHT22;60138;55.808;37.078;2023-01-26T01:34:29;-1.63;67.97
70214;DHT22;60138;55.808;37.078;2023-01-26T01:36:54;-1.68;68.14
70214;DHT22;60138;55.808;37.078;2023-01-26T01:39:20;-1.70;68.21
70214;DHT22;60138;55.808;37.078;2023-01-26T01:41:46;-1.70;68.21
70214;DHT22;60138;55.808;37.078;2023-01-26T01:44:17;-1.68;68.30
70214;DHT22;60138;55.808;37.078;2023-01-26T01:47:09;-1.72;68.27
70214;DHT22;60138;55.808;37.078;2023-01-26T01:49:39;-1.72;68.27
70214;DHT22;60138;55.808;37.078;2023-01-26T01:52:21;-1.71;68.43
70214;DHT22;60138;55.808;37.078;2023-01-26T01:55:08;-1.67;68.30
70214;DHT22;60138;55.808;37.078;2023-01-26T01:57:44;-1.72;68.26
70214;DHT22;60138;55.808;37.078;2023-01-26T02:00:16;-1.71;68.42
70214;DHT22;60138;55.808;37.078;2023-01-26T02:02:44;-1.69;68.45
70214;DHT22;60138;55.808;37.078;2023-01-26T02:05:23;-1.68;68.43
70214;DHT22;60138;55.808;37.078;2023-01-26T02:07:50;-1.67;68.36
70214;DHT22;60138;55.808;37.078;2023-01-26T02:10:17;-1.64;68.39
70214;DHT22;60138;55.808;37.078;2023-01-26T02:12:46;-1.63;68.34
70214;DHT22;60138;55.808;37.078;2023-01-26T02:15:15;-1.70;68.35
70214;DHT22;60138;55.808;37.078;2023-01-26T02:17:40;-1.72;68.20
70214;DHT22;60138;55.808;37.078;2023-01-26T02:22:58;-1.69;68.44
70214;DHT22;60138;55.808;37.078;2023-01-26T02:28:20;-1.67;68.36
70214;DHT22;60138;55.808;37.078;2023-01-26T02:30:48;-1.67;68.38
70214;DHT22;60138;55.808;37.078;2023-01-26T02:33:22;-1.63;68.42
70214;DHT22;60138;55.808;37.078;2023-01-26T02:35:49;-1.62;68.37
70214;DHT22;60138;55.808;37.078;2023-01-26T02:38:17;-1.61;68.43
70214;DHT22;60138;55.808;37.078;2023-01-26T02:40:52;-1.58;68.36
70214;DHT22;60138;55.808;37.078;2023-01-26T02:43:18;-1.59;68.33
70214;DHT22;60138;55.808;37.078;2023-01-26T02:45:45;-1.61;68.33
70214;DHT22;60138;55.808;37.078;2023-01-26T02:48:10;-1.60;68.37
70214;DHT22;60138;55.808;37.078;2023-01-26T02:50:36;-1.57;68.35
70214;DHT22;60138;55.808;37.078;2023-01-26T02:53:02;-1.59;68.37
70214;DHT22;60138;55.808;37.078;2023-01-26T02:55:29;-1.60;68.38
70214;DHT22;60138;55.808;37.078;2023-01-26T02:58:03;-1.61;68.24
70214;DHT22;60138;55.808;37.078;2023-01-26T03:00:34;-1.62;68.36
70214;DHT22;60138;55.808;37.078;2023-01-26T03:03:09;-1.64;68.35
70214;DHT22;60138;55.808;37.078;2023-01-26T03:05:38;-1.68;68.52
70214;DHT22;60138;55.808;37.078;2023-01-26T03:08:04;-1.64;68.68
70214;DHT22;60138;55.808;37.078;2023-01-26T03:10:34;-1.64;68.44
70214;DHT22;60138;55.808;37.078;2023-01-26T03:13:01;-1.62;68.54
70214;DHT22;60138;55.808;37.078;2023-01-26T03:15:27;-1.60;68.46
70214;DHT22;60138;55.808;37.078;2023-01-26T03:18:00;-1.60;68.47
70214;DHT22;60138;55.808;37.078;2023-01-26T03:20:27;-1.58;68.49
70214;DHT22;60138;55.808;37.078;2023-01-26T03:22:53;-1.60;68.35
70214;DHT22;60138;55.808;37.078;2023-01-26T03:25:19;-1.60;68.52
70214;DHT22;60138;55.808;37.078;2023-01-26T03:27:47;-1.60;68.46
70214;DHT22;60138;55.808;37.078;2023-01-26T03:30:17;-1.60;68.41
70214;DHT22;60138;55.808;37.078;2023-01-26T03:32:45;-1.60;68.49
70214;DHT22;60138;55.808;37.078;2023-01-26T03:35:14;-1.63;68.51
70214;DHT22;60138;55.808;37.078;2023-01-26T03:37:43;-1.63;68.52
70214;DHT22;60138;55.808;37.078;2023-01-26T03:40:15;-1.62;68.59
70214;DHT22;60138;55.808;37.078;2023-01-26T03:42:41;-1.61;68.49
70214;DHT22;60138;55.808;37.078;2023-01-26T03:45:08;-1.59;68.51
70214;DHT22;60138;55.808;37.078;2023-01-26T03:47:36;-1.59;68.42
70214;DHT22;60138;55.808;37.078;2023-01-26T03:50:02;-1.59;68.42
70214;DHT22;60138;55.808;37.078;2023-01-26T03:52:32;-1.62;68.49
70214;DHT22;60138;55.808;37.078;2023-01-26T03:55:00;-1.61;68.59
70214;DHT22;60138;55.808;37.078;2023-01-26T03:57:28;-1.58;68.41
70214;DHT22;60138;55.808;37.078;2023-01-26T03:59:54;-1.59;68.46
70214;DHT22;60138;55.808;37.078;2023-01-26T04:02:22;-1.56;68.51
70214;DHT22;60138;55.808;37.078;2023-01-26T04:04:48;-1.58;68.36
70214;DHT22;60138;55.808;37.078;2023-01-26T04:07:15;-1.60;68.45
70214;DHT22;60138;55.808;37.078;2023-01-26T04:09:46;-1.58;68.54
70214;DHT22;60138;55.808;37.078;2023-01-26T04:12:12;-1.55;68.52
70214;DHT22;60138;55.808;37.078;2023-01-26T04:14:48;-1.56;68.50
70214;DHT22;60138;55.808;37.078;2023-01-26T04:17:15;-1.57;68.30
70214;DHT22;60138;55.808;37.078;2023-01-26T04:19:41;-1.61;68.42
70214;DHT22;60138;55.808;37.078;2023-01-26T04:22:07;-1.60;68.49
70214;DHT22;60138;55.808;37.078;2023-01-26T04:24:35;-1.58;68.49
70214;DHT22;60138;55.808;37.078;2023-01-26T04:27:00;-1.59;68.37
70214;DHT22;60138;55.808;37.078;2023-01-26T04:29:32;-1.57;68.43
70214;DHT22;60138;55.808;37.078;2023-01-26T04:31:59;-1.55;68.39
70214;DHT22;60138;55.808;37.078;2023-01-26T04:34:25;-1.55;68.48
70214;DHT22;60138;55.808;37.078;2023-01-26T04:36:51;-1.54;68.38
70214;DHT22;60138;55.808;37.078;2023-01-26T04:39:20;-1.54;68.42
70214;DHT22;60138;55.808;37.078;2023-01-26T04:41:50;-1.54;68.33
70214;DHT22;60138;55.808;37.078;2023-01-26T04:44:18;-1.54;68.36
70214;DHT22;60138;55.808;37.078;2023-01-26T04:46:43;-1.55;68.17
70214;DHT22;60138;55.808;37.078;2023-01-26T04:49:11;-1.56;68.36
70214;DHT22;60138;55.808;37.078;2023-01-26T04:51:38;-1.57;68.24
70214;DHT22;60138;55.808;37.078;2023-01-26T04:54:04;-1.55;68.30
70214;DHT22;60138;55.808;37.078;2023-01-26T04:56:33;-1.57;68.30
70214;DHT22;60138;55.808;37.078;2023-01-26T04:59:04;-1.57;68.33
70214;DHT22;60138;55.808;37.078;2023-01-26T05:01:31;-1.56;68.39
70214;DHT22;60138;55.808;37.078;2023-01-26T05:04:02;-1.57;68.36
70214;DHT22;60138;55.808;37.078;2023-01-26T05:06:30;-1.54;68.33
70214;DHT22;60138;55.808;37.078;2023-01-26T05:08:56;-1.55;68.33
70214;DHT22;60138;55.808;37.078;2023-01-26T05:11:24;-1.53;68.30
70214;DHT22;60138;55.808;37.078;2023-01-26T05:14:25;-1.49;68.29
70214;DHT22;60138;55.808;37.078;2023-01-26T05:17:16;-1.50;68.35
70214;DHT22;60138;55.808;37.078;2023-01-26T05:19:50;-1.53;68.20
70214;DHT22;60138;55.808;37.078;2023-01-26T05:22:36;-1.54;68.25
70214;DHT22;60138;55.808;37.078;2023-01-26T05:25:20;-1.53;68.24
70214;DHT22;60138;55.808;37.078;2023-01-26T05:27:55;-1.52;68.23
70214;DHT22;60138;55.808;37.078;2023-01-26T05:30:21;-1.50;68.29
70214;DHT22;60138;55.808;37.078;2023-01-26T05:32:49;-1.45;68.30
70214;DHT22;60138;55.808;37.078;2023-01-26T05:35:15;-1.43;68.24
70214;DHT22;60138;55.808;37.078;2023-01-26T05:37:41;-1.45;68.14
70214;DHT22;60138;55.808;37.078;2023-01-26T05:40:08;-1.48;68.26
70214;DHT22;60138;55.808;37.078;2023-01-26T05:42:34;-1.42;68.23
70214;DHT22;60138;55.808;37.078;2023-01-26T05:45:20;-1.43;68.12
70214;DHT22;60138;55.808;37.078;2023-01-26T05:47:48;-1.44;68.07
70214;DHT22;60138;55.808;37.078;2023-01-26T05:50:14;-1.46;68.16
70214;DHT22;60138;55.808;37.078;2023-01-26T05:52:42;-1.48;68.21
70214;DHT22;60138;55.808;37.078;2023-01-26T05:55:09;-1.48;68.30
70214;DHT22;60138;55.808;37.078;2023-01-26T05:57:34;-1.44;68.19
70214;DHT22;60138;55.808;37.078;2023-01-26T06:00:07;-1.39;68.20
70214;DHT22;60138;55.808;37.078;2023-01-26T06:02:40;-1.38;68.21
70214;DHT22;60138;55.808;37.078;2023-01-26T06:05:08;-1.34;68.18
70214;DHT22;60138;55.808;37.078;2023-01-26T06:07:34;-1.34;68.01
70214;DHT22;60138;55.808;37.078;2023-01-26T06:10:20;-1.35;67.79
70214;DHT22;60138;55.808;37.078;2023-01-26T06:13:07;-1.31;68.04
70214;DHT22;60138;55.808;37.078;2023-01-26T06:16:00;-1.26;68.07
70214;DHT22;60138;55.808;37.078;2023-01-26T06:18:28;-1.24;68.02
70214;DHT22;60138;55.808;37.078;2023-01-26T06:20:58;-1.19;68.03
70214;DHT22;60138;55.808;37.078;2023-01-26T06:23:24;-1.18;67.89
70214;DHT22;60138;55.808;37.078;2023-01-26T06:25:51;-1.14;68.04
70214;DHT22;60138;55.808;37.078;2023-01-26T06:28:18;-1.12;67.71
70214;DHT22;60138;55.808;37.078;2023-01-26T06:30:44;-1.05;67.91
70214;DHT22;60138;55.808;37.078;2023-01-26T06:33:11;-1.04;67.84
70214;DHT22;60138;55.808;37.078;2023-01-26T06:35:37;-1.03;67.66
70214;DHT22;60138;55.808;37.078;2023-01-26T06:38:05;-0.97;67.66
70214;DHT22;60138;55.808;37.078;2023-01-26T06:40:31;-0.96;67.56
70214;DHT22;60138;55.808;37.078;2023-01-26T06:42:57;-0.94;67.61
70214;DHT22;60138;55.808;37.078;2023-01-26T06:45:22;-0.90;67.66
70214;DHT22;60138;55.808;37.078;2023-01-26T06:47:50;-0.87;67.26
70214;DHT22;60138;55.808;37.078;2023-01-26T06:50:24;-0.84;67.36
70214;DHT22;60138;55.808;37.078;2023-01-26T06:52:54;-0.80;67.31
70214;DHT22;60138;55.808;37.078;2023-01-26T06:55:39;-0.76;67.35
70214;DHT22;60138;55.808;37.078;2023-01-26T06:58:23;-0.74;67.20
70214;DHT22;60138;55.808;37.078;2023-01-26T07:01:19;-0.73;67.39
70214;DHT22;60138;55.808;37.078;2023-01-26T07:03:50;-0.75;67.19
70214;DHT22;60138;55.808;37.078;2023-01-26T07:06:16;-0.75;67.32
70214;DHT22;60138;55.808;37.078;2023-01-26T07:08:42;-0.73;67.13
70214;DHT22;60138;55.808;37.078;2023-01-26T07:11:09;-0.69;67.10
70214;DHT22;60138;55.808;37.078;2023-01-26T07:13:36;-0.65;66.98
70214;DHT22;60138;55.808;37.078;2023-01-26T07:16:09;-0.66;66.98
70214;DHT22;60138;55.808;37.078;2023-01-26T07:18:36;-0.66;66.98
70214;DHT22;60138;55.808;37.078;2023-01-26T07:21:22;-0.67;66.91
70214;DHT22;60138;55.808;37.078;2023-01-26T07:23:48;-0.67;67.10
70214;DHT22;60138;55.808;37.078;2023-01-26T07:26:14;-0.68;67.03
70214;DHT22;60138;55.808;37.078;2023-01-26T07:28:40;-0.65;67.23
70214;DHT22;60138;55.808;37.078;2023-01-26T07:31:07;-0.65;67.05
70214;DHT22;60138;55.808;37.078;2023-01-26T07:33:33;-0.59;67.09
70214;DHT22;60138;55.808;37.078;2023-01-26T07:36:00;-0.55;66.56
70214;DHT22;60138;55.808;37.078;2023-01-26T07:38:26;-0.53;66.88
70214;DHT22;60138;55.808;37.078;2023-01-26T07:40:52;-0.52;66.76
70214;DHT22;60138;55.808;37.078;2023-01-26T07:43:18;-0.46;67.02
70214;DHT22;60138;55.808;37.078;2023-01-26T07:45:49;-0.41;66.90
70214;DHT22;60138;55.808;37.078;2023-01-26T07:48:15;-0.37;66.72
70214;DHT22;60138;55.808;37.078;2023-01-26T07:50:41;-0.37;66.43
70214;DHT22;60138;55.808;37.078;2023-01-26T07:53:07;-0.31;66.63
70214;DHT22;60138;55.808;37.078;2023-01-26T07:55:33;-0.31;66.18
70214;DHT22;60138;55.808;37.078;2023-01-26T07:57:59;-0.27;66.67
70214;DHT22;60138;55.808;37.078;2023-01-26T08:00:24;-0.23;66.71
70214;DHT22;60138;55.808;37.078;2023-01-26T08:02:50;-0.19;66.67
70214;DHT22;60138;55.808;37.078;2023-01-26T08:05:16;-0.14;66.36
70214;DHT22;60138;55.808;37.078;2023-01-26T08:07:41;-0.13;66.44
70214;DHT22;60138;55.808;37.078;2023-01-26T08:10:08;-0.05;66.46
70214;DHT22;60138;55.808;37.078;2023-01-26T08:12:34;-0.00;66.20
70214;DHT22;60138;55.808;37.078;2023-01-26T08:15:00;-0.02;66.20
70214;DHT22;60138;55.808;37.078;2023-01-26T08:17:28;0.02;66.17
70214;DHT22;60138;55.808;37.078;2023-01-26T08:19:53;0.05;66.34
70214;DHT22;60138;55.808;37.078;2023-01-26T08:22:19;-0.00;66.18
70214;DHT22;60138;55.808;37.078;2023-01-26T08:24:45;0.05;66.33
70214;DHT22;60138;55.808;37.078;2023-01-26T08:27:11;0.04;65.21
70214;DHT22;60138;55.808;37.078;2023-01-26T08:29:36;-0.01;66.50
70214;DHT22;60138;55.808;37.078;2023-01-26T08:32:02;-0.01;66.40
70214;DHT22;60138;55.808;37.078;2023-01-26T08:34:28;0.02;66.06
70214;DHT22;60138;55.808;37.078;2023-01-26T08:36:54;0.08;66.34
70214;DHT22;60138;55.808;37.078;2023-01-26T08:39:22;0.08;65.77
70214;DHT22;60138;55.808;37.078;2023-01-26T08:41:49;0.05;65.75
70214;DHT22;60138;55.808;37.078;2023-01-26T08:44:15;0.05;65.73
70214;DHT22;60138;55.808;37.078;2023-01-26T08:46:42;0.07;66.04
70214;DHT22;60138;55.808;37.078;2023-01-26T08:49:08;0.17;66.14
70214;DHT22;60138;55.808;37.078;2023-01-26T08:51:34;0.28;65.76
70214;DHT22;60138;55.808;37.078;2023-01-26T08:53:59;0.30;65.78
70214;DHT22;60138;55.808;37.078;2023-01-26T08:56:25;0.29;66.12
70214;DHT22;60138;55.808;37.078;2023-01-26T08:58:51;0.22;65.90
70214;DHT22;60138;55.808;37.078;2023-01-26T09:01:17;0.18;65.84
70214;DHT22;60138;55.808;37.078;2023-01-26T09:03:43;0.22;65.94
70214;DHT22;60138;55.808;37.078;2023-01-26T09:06:10;0.27;65.88
70214;DHT22;60138;55.808;37.078;2023-01-26T09:08:36;0.31;65.66
70214;DHT22;60138;55.808;37.078;2023-01-26T09:11:05;0.30;65.59
70214;DHT22;60138;55.808;37.078;2023-01-26T09:13:31;0.32;65.78
70214;DHT22;60138;55.808;37.078;2023-01-26T09:15:56;0.29;65.41
70214;DHT22;60138;55.808;37.078;2023-01-26T09:18:22;0.34;65.87
70214;DHT22;60138;55.808;37.078;2023-01-26T09:20:48;0.30;65.86
70214;DHT22;60138;55.808;37.078;2023-01-26T09:23:14;0.31;65.88
70214;DHT22;60138;55.808;37.078;2023-01-26T09:25:39;0.28;65.17
70214;DHT22;60138;55.808;37.078;2023-01-26T09:28:05;0.25;65.80
70214;DHT22;60138;55.808;37.078;2023-01-26T09:30:32;0.22;65.75
70214;DHT22;60138;55.808;37.078;2023-01-26T09:32:58;0.21;65.73
70214;DHT22;60138;55.808;37.078;2023-01-26T09:35:26;0.21;66.01
70214;DHT22;60138;55.808;37.078;2023-01-26T09:37:51;0.14;65.78
70214;DHT22;60138;55.808;37.078;2023-01-26T09:40:25;0.15;66.04
70214;DHT22;60138;55.808;37.078;2023-01-26T09:43:06;0.13;65.49
70214;DHT22;60138;55.808;37.078;2023-01-26T09:45:48;0.14;65.82
70214;DHT22;60138;55.808;37.078;2023-01-26T09:48:30;0.15;66.24
70214;DHT22;60138;55.808;37.078;2023-01-26T09:51:37;0.14;65.94
70214;DHT22;60138;55.808;37.078;2023-01-26T09:53:58;0.14;66.07
70214;DHT22;60138;55.808;37.078;2023-01-26T09:56:27;0.12;66.27
70214;DHT22;60138;55.808;37.078;2023-01-26T09:58:59;0.05;66.50
70214;DHT22;60138;55.808;37.078;2023-01-26T10:01:39;0.06;66.42
70214;DHT22;60138;55.808;37.078;2023-01-26T10:06:36;0.02;66.20
70214;DHT22;60138;55.808;37.078;2023-01-26T10:09:16;0.09;66.59
70214;DHT22;60138;55.808;37.078;2023-01-26T10:11:48;0.09;66.08
70214;DHT22;60138;55.808;37.078;2023-01-26T10:14:32;0.05;66.04
70214;DHT22;60138;55.808;37.078;2023-01-26T10:17:00;0.06;66.35
70214;DHT22;60138;55.808;37.078;2023-01-26T10:19:38;0.07;66.32
70214;DHT22;60138;55.808;37.078;2023-01-26T10:22:13;0.07;66.37
70214;DHT22;60138;55.808;37.078;2023-01-26T10:24:41;0.09;66.19
70214;DHT22;60138;55.808;37.078;2023-01-26T10:27:10;0.09;66.52
70214;DHT22;60138;55.808;37.078;2023-01-26T10:29:36;0.09;66.55
70214;DHT22;60138;55.808;37.078;2023-01-26T10:32:02;0.12;66.27
70214;DHT22;60138;55.808;37.078;2023-01-26T10:34:28;0.07;66.37
70214;DHT22;60138;55.808;37.078;2023-01-26T10:37:04;0.10;66.48
70214;DHT22;60138;55.808;37.078;2023-01-26T10:39:59;0.08;66.46
70214;DHT22;60138;55.808;37.078;2023-01-26T10:42:30;0.12;66.30
70214;DHT22;60138;55.808;37.078;2023-01-26T10:44:58;0.14;66.44
70214;DHT22;60138;55.808;37.078;2023-01-26T10:47:24;0.17;66.68
70214;DHT22;60138;55.808;37.078;2023-01-26T10:49:50;0.21;66.70
70214;DHT22;60138;55.808;37.078;2023-01-26T10:52:23;0.22;66.51
70214;DHT22;60138;55.808;37.078;2023-01-26T10:55:10;0.25;66.78
70214;DHT22;60138;55.808;37.078;2023-01-26T10:57:38;0.24;66.69
70214;DHT22;60138;55.808;37.078;2023-01-26T11:02:50;0.23;66.81
70214;DHT22;60138;55.808;37.078;2023-01-26T11:05:24;0.25;66.89
70214;DHT22;60138;55.808;37.078;2023-01-26T11:07:55;0.30;66.94
70214;DHT22;60138;55.808;37.078;2023-01-26T11:10:33;0.29;66.86
70214;DHT22;60138;55.808;37.078;2023-01-26T11:15:42;0.29;67.00
70214;DHT22;60138;55.808;37.078;2023-01-26T11:21:01;0.32;67.29
70214;DHT22;60138;55.808;37.078;2023-01-26T11:31:19;0.34;67.74
70214;DHT22;60138;55.808;37.078;2023-01-26T11:36:40;0.38;67.91
70214;DHT22;60138;55.808;37.078;2023-01-26T11:42:39;0.37;68.18
70214;DHT22;60138;55.808;37.078;2023-01-26T11:45:27;0.42;68.24
70214;DHT22;60138;55.808;37.078;2023-01-26T11:51:11;0.45;68.11
70214;DHT22;60138;55.808;37.078;2023-01-26T11:59:29;0.27;69.00
70214;DHT22;60138;55.808;37.078;2023-01-26T12:02:03;0.21;68.59
70214;DHT22;60138;55.808;37.078;2023-01-26T12:04:35;0.16;69.27
70214;DHT22;60138;55.808;37.078;2023-01-26T12:07:14;0.17;69.24
70214;DHT22;60138;55.808;37.078;2023-01-26T12:09:45;0.20;69.52
70214;DHT22;60138;55.808;37.078;2023-01-26T12:12:36;0.27;69.29
70214;DHT22;60138;55.808;37.078;2023-01-26T12:15:21;0.22;69.50
70214;DHT22;60138;55.808;37.078;2023-01-26T12:20:39;0.23;69.65
70214;DHT22;60138;55.808;37.078;2023-01-26T12:28:33;0.14;70.07
70214;DHT22;60138;55.808;37.078;2023-01-26T12:31:24;0.17;70.07
70214;DHT22;60138;55.808;37.078;2023-01-26T12:33:54;0.20;70.13
70214;DHT22;60138;55.808;37.078;2023-01-26T12:46:57;0.22;70.10
70214;DHT22;60138;55.808;37.078;2023-01-26T12:49:39;0.18;70.16
70214;DHT22;60138;55.808;37.078;2023-01-26T12:52:15;0.20;69.66
70214;DHT22;60138;55.808;37.078;2023-01-26T12:55:10;0.16;70.24
70214;DHT22;60138;55.808;37.078;2023-01-26T12:57:39;0.15;70.29
70214;DHT22;60138;55.808;37.078;2023-01-26T13:02:45;0.12;70.48
70214;DHT22;60138;55.808;37.078;2023-01-26T13:05:28;0.07;70.52
70214;DHT22;60138;55.808;37.078;2023-01-26T13:07:54;0.03;70.58
70214;DHT22;60138;55.808;37.078;2023-01-26T13:10:28;0.01;70.54
70214;DHT22;60138;55.808;37.078;2023-01-26T13:13:33;0.04;70.59
70214;DHT22;60138;55.808;37.078;2023-01-26T13:18:58;0.04;70.68
70214;DHT22;60138;55.808;37.078;2023-01-26T13:26:57;0.04;70.76
70214;DHT22;60138;55.808;37.078;2023-01-26T13:31:50;0.12;70.76
70214;DHT22;60138;55.808;37.078;2023-01-26T13:34:21;0.15;70.81
70214;DHT22;60138;55.808;37.078;2023-01-26T13:36:50;0.15;70.91
70214;DHT22;60138;55.808;37.078;2023-01-26T13:41:46;0.17;70.68
70214;DHT22;60138;55.808;37.078;2023-01-26T13:44:17;0.17;70.77
70214;DHT22;60138;55.808;37.078;2023-01-26T13:46:57;0.17;70.71
70214;DHT22;60138;55.808;37.078;2023-01-26T13:49:25;0.21;70.77
70214;DHT22;60138;55.808;37.078;2023-01-26T13:51:51;0.23;70.61
70214;DHT22;60138;55.808;37.078;2023-01-26T13:54:18;0.19;70.53
70214;DHT22;60138;55.808;37.078;2023-01-26T13:57:02;0.18;70.32
70214;DHT22;60138;55.808;37.078;2023-01-26T13:59:28;0.18;70.41
70214;DHT22;60138;55.808;37.078;2023-01-26T14:01:55;0.15;70.13
70214;DHT22;60138;55.808;37.078;2023-01-26T14:04:26;0.12;70.27
70214;DHT22;60138;55.808;37.078;2023-01-26T14:07:08;0.13;70.21
70214;DHT22;60138;55.808;37.078;2023-01-26T14:09:51;0.12;70.11
70214;DHT22;60138;55.808;37.078;2023-01-26T14:12:30;0.09;69.92
70214;DHT22;60138;55.808;37.078;2023-01-26T14:15:00;0.06;69.82
70214;DHT22;60138;55.808;37.078;2023-01-26T14:17:45;0.05;69.84
70214;DHT22;60138;55.808;37.078;2023-01-26T14:20:41;0.09;69.87
70214;DHT22;60138;55.808;37.078;2023-01-26T14:25:33;0.09;69.52
70214;DHT22;60138;55.808;37.078;2023-01-26T14:27:59;0.10;69.60
70214;DHT22;60138;55.808;37.078;2023-01-26T14:30:30;0.12;69.61
70214;DHT22;60138;55.808;37.078;2023-01-26T14:35:34;0.10;69.40
70214;DHT22;60138;55.808;37.078;2023-01-26T14:38:18;0.06;69.52
70214;DHT22;60138;55.808;37.078;2023-01-26T14:40:50;0.05;69.83
70214;DHT22;60138;55.808;37.078;2023-01-26T14:43:17;0.08;69.84
70214;DHT22;60138;55.808;37.078;2023-01-26T14:46:08;0.10;69.78
70214;DHT22;60138;55.808;37.078;2023-01-26T14:51:18;0.09;70.00
70214;DHT22;60138;55.808;37.078;2023-01-26T14:53:50;0.10;70.00
70214;DHT22;60138;55.808;37.078;2023-01-26T14:56:18;0.10;70.05
70214;DHT22;60138;55.808;37.078;2023-01-26T14:58:49;0.13;69.95
70214;DHT22;60138;55.808;37.078;2023-01-26T15:01:22;0.12;70.11
70214;DHT22;60138;55.808;37.078;2023-01-26T15:03:49;0.12;70.28
70214;DHT22;60138;55.808;37.078;2023-01-26T15:06:24;0.10;70.24
70214;DHT22;60138;55.808;37.078;2023-01-26T15:09:21;0.13;70.33
70214;DHT22;60138;55.808;37.078;2023-01-26T15:11:58;0.14;70.55
70214;DHT22;60138;55.808;37.078;2023-01-26T15:14:36;0.12;70.63
70214;DHT22;60138;55.808;37.078;2023-01-26T15:17:03;0.12;70.69
70214;DHT22;60138;55.808;37.078;2023-01-26T15:19:32;0.10;70.63
70214;DHT22;60138;55.808;37.078;2023-01-26T15:22:02;0.06;70.84
70214;DHT22;60138;55.808;37.078;2023-01-26T15:24:28;0.04;71.10
70214;DHT22;60138;55.808;37.078;2023-01-26T15:27:03;0.06;71.35
70214;DHT22;60138;55.808;37.078;2023-01-26T15:29:31;0.03;70.97
70214;DHT22;60138;55.808;37.078;2023-01-26T15:31:58;0.02;71.32
70214;DHT22;60138;55.808;37.078;2023-01-26T15:34:35;0.02;71.57
70214;DHT22;60138;55.808;37.078;2023-01-26T15:37:47;0.02;71.16
70214;DHT22;60138;55.808;37.078;2023-01-26T15:39:48;-0.00;71.55
70214;DHT22;60138;55.808;37.078;2023-01-26T15:42:20;-0.01;71.65
70214;DHT22;60138;55.808;37.078;2023-01-26T15:44:46;-0.01;71.39
70214;DHT22;60138;55.808;37.078;2023-01-26T15:47:12;-0.07;71.78
70214;DHT22;60138;55.808;37.078;2023-01-26T15:49:38;-0.12;71.76
70214;DHT22;60138;55.808;37.078;2023-01-26T15:52:18;-0.15;71.97
70214;DHT22;60138;55.808;37.078;2023-01-26T15:54:44;-0.19;72.34
70214;DHT22;60138;55.808;37.078;2023-01-26T15:57:11;-0.21;72.32
70214;DHT22;60138;55.808;37.078;2023-01-26T15:59:38;-0.16;72.19
70214;DHT22;60138;55.808;37.078;2023-01-26T16:02:14;-0.16;72.25
70214;DHT22;60138;55.808;37.078;2023-01-26T16:04:40;-0.14;72.38
70214;DHT22;60138;55.808;37.078;2023-01-26T16:07:11;-0.14;71.31
70214;DHT22;60138;55.808;37.078;2023-01-26T16:09:37;-0.26;72.22
70214;DHT22;60138;55.808;37.078;2023-01-26T16:12:03;-0.25;72.19
70214;DHT22;60138;55.808;37.078;2023-01-26T16:14:30;-0.24;72.51
70214;DHT22;60138;55.808;37.078;2023-01-26T16:16:55;-0.23;72.28
70214;DHT22;60138;55.808;37.078;2023-01-26T16:19:21;-0.19;72.35
70214;DHT22;60138;55.808;37.078;2023-01-26T16:21:47;-0.22;72.00
70214;DHT22;60138;55.808;37.078;2023-01-26T16:24:13;-0.22;71.96
70214;DHT22;60138;55.808;37.078;2023-01-26T16:26:38;-0.25;71.51
70214;DHT22;60138;55.808;37.078;2023-01-26T16:29:04;-0.25;71.80
70214;DHT22;60138;55.808;37.078;2023-01-26T16:31:32;-0.23;71.91
70214;DHT22;60138;55.808;37.078;2023-01-26T16:33:59;-0.22;71.51
70214;DHT22;60138;55.808;37.078;2023-01-26T16:36:24;-0.23;71.77
70214;DHT22;60138;55.808;37.078;2023-01-26T16:38:50;-0.24;71.64
70214;DHT22;60138;55.808;37.078;2023-01-26T16:41:27;-0.26;71.77
70214;DHT22;60138;55.808;37.078;2023-01-26T16:43:55;-0.24;71.64
70214;DHT22;60138;55.808;37.078;2023-01-26T16:46:21;-0.26;71.49
70214;DHT22;60138;55.808;37.078;2023-01-26T16:48:50;-0.23;71.63
70214;DHT22;60138;55.808;37.078;2023-01-26T16:51:23;-0.16;71.55
70214;DHT22;60138;55.808;37.078;2023-01-26T16:53:50;-0.15;71.45
70214;DHT22;60138;55.808;37.078;2023-01-26T16:56:18;-0.15;71.14
70214;DHT22;60138;55.808;37.078;2023-01-26T16:58:44;-0.15;71.18
70214;DHT22;60138;55.808;37.078;2023-01-26T17:01:34;-0.10;71.17
70214;DHT22;60138;55.808;37.078;2023-01-26T17:04:01;-0.09;70.91